sensor_id;sensor_type;location;lat;lon;timestamp;temperature;humidity
3794;DHT22;1912;51.358;12.282;2023-08-24T03:45:49;17.40;1.00
3794;DHT22;1912;51.358;12.282;2023-08-24T03:48:14;17.40;1.00
3794;DHT22;1912;51.358;12.282;2023-08-24T03:50:40;17.40;1.00
3794;DHT22;1912;51.358;12.282;2023-08-24T03:53:06;17.40;1.00
3794;DHT22;1912;51.358;12.282;2023-08-24T03:55:32;17.40;1.00
3794;DHT22;1912;51.358;12.282;2023-08-24T03:57:59;17.40;1.00
3794;DHT22;1912;51.358;12.282;2023-08-24T04:00:25;17.40;1.00
3794;DHT22;1912;51.358;12.282;2023-08-24T04:02:51;17.40;1.00
3794;DHT22;1912;51.358;12.282;2023-08-24T04:05:17;17.40;1.00
3794;DHT22;1912;51.358;12.282;2023-08-24T04:07:43;17.30;1.00
3794;DHT22;1912;51.358;12.282;2023-08-24T04:10:09;17.20;1.00
3794;DHT22;1912;51.358;12.282;2023-08-24T04:12:36;17.20;1.00
3794;DHT22;1912;51.358;12.282;2023-08-24T04:15:02;17.10;1.00
3794;DHT22;1912;51.358;12.282;2023-08-24T04:17:28;17.10;1.00
3794;DHT22;1912;51.358;12.282;2023-08-24T04:19:54;17.10;1.00
3794;DHT22;1912;51.358;12.282;2023-08-24T04:22:19;17.10;1.00
3794;DHT22;1912;51.358;12.282;2023-08-24T04:24:45;17.10;1.00
3794;DHT22;1912;51.358;12.282;2023-08-24T04:27:11;17.10;1.00
3794;DHT22;1912;51.358;12.282;2023-08-24T04:29:36;17.10;1.00
3794;DHT22;1912;51.358;12.282;2023-08-24T04:32:02;17.20;1.00
3794;DHT22;1912;51.358;12.282;2023-08-24T04:34:28;17.10;1.00
3794;DHT22;1912;51.358;12.282;2023-08-24T04:36:54;17.10;1.00
3794;DHT22;1912;51.358;12.282;2023-08-24T04:39:20;17.10;1.00
3794;DHT22;1912;51.358;12.282;2023-08-24T04:41:45;17.00;1.00
3794;DHT22;1912;51.358;12.282;2023-08-24T04:44:11;17.00;1.00
3794;DHT22;1912;51.358;12.282;2023-08-24T04:46:37;17.10;1.00
3794;DHT22;1912;51.358;12.282;2023-08-24T04:49:03;17.00;1.00
3794;DHT22;1912;51.358;12.282;2023-08-24T04:51:29;17.10;1.00
3794;DHT22;1912;51.358;12.282;2023-08-24T04:53:54;17.10;1.00
3794;DHT22;1912;51.358;12.282;2023-08-24T04:56:20;17.20;1.00
3794;DHT22;1912;51.358;12.282;2023-08-24T04:58:53;17.20;1.00
3794;DHT22;1912;51.358;12.282;2023-08-24T05:01:20;17.30;1.00
3794;DHT22;1912;51.358;12.282;2023-08-24T05:03:46;17.30;1.00
3794;DHT22;1912;51.358;12.282;2023-08-24T05:06:11;17.30;1.00
3794;DHT22;1912;51.358;12.282;2023-08-24T05:08:37;17.30;1.00
3794;DHT22;1912;51.358;12.282;2023-08-24T05:11:11;17.30;1.00
3794;DHT22;1912;51.358;12.282;2023-08-24T05:13:38;17.40;1.00
3794;DHT22;1912;51.358;12.282;2023-08-24T05:16:03;17.40;1.00
3794;DHT22;1912;51.358;12.282;2023-08-24T05:18:29;17.50;1.00
3794;DHT22;1912;51.358;12.282;2023-08-24T05:20:55;17.60;1.00
3794;DHT22;1912;51.358;12.282;2023-08-24T05:23:20;17.70;1.00
3794;DHT22;1912;51.358;12.282;2023-08-24T05:25:46;17.80;1.00
3794;DHT22;1912;51.358;12.282;2023-08-24T05:28:12;17.90;1.00
3794;DHT22;1912;51.358;12.282;2023-08-24T05:30:38;18.00;1.00
3794;DHT22;1912;51.358;12.282;2023-08-24T05:33:04;18.10;1.00
3794;DHT22;1912;51.358;12.282;2023-08-24T05:35:29;18.20;1.00
3794;DHT22;1912;51.358;12.282;2023-08-24T05:37:55;18.30;1.00
3794;DHT22;1912;51.358;12.282;2023-08-24T05:40:21;18.40;1.00
3794;DHT22;1912;51.358;12.282;2023-08-24T05:42:46;18.80;1.00
3794;DHT22;1912;51.358;12.282;2023-08-24T05:45:12;19.10;1.00
3794;DHT22;1912;51.358;12.282;2023-08-24T05:47:38;19.40;1.00
3794;DHT22;1912;51.358;12.282;2023-08-24T05:50:03;19.70;1.00
3794;DHT22;1912;51.358;12.282;2023-08-24T05:52:29;19.90;1.00
3794;DHT22;1912;51.358;12.282;2023-08-24T05:54:55;20.10;1.00
3794;DHT22;1912;51.358;12.282;2023-08-24T05:57:21;20.30;1.00
3794;DHT22;1912;51.358;12.282;2023-08-24T05:59:47;20.40;1.00
3794;DHT22;1912;51.358;12.282;2023-08-24T06:02:13;20.70;1.00
3794;DHT22;1912;51.358;12.282;2023-08-24T06:04:38;20.90;1.00
3794;DHT22;1912;51.358;12.282;2023-08-24T06:07:04;21.00;1.00
3794;DHT22;1912;51.358;12.282;2023-08-24T06:09:30;21.00;1.00
3794;DHT22;1912;51.358;12.282;2023-08-24T06:11:57;20.90;1.00
3794;DHT22;1912;51.358;12.282;2023-08-24T06:14:22;20.90;1.00
3794;DHT22;1912;51.358;12.282;2023-08-24T06:16:48;20.90;1.00
3794;DHT22;1912;51.358;12.282;2023-08-24T06:19:14;21.00;1.00
3794;DHT22;1912;51.358;12.282;2023-08-24T06:21:40;21.10;1.00
3794;DHT22;1912;51.358;12.282;2023-08-24T06:24:06;21.30;1.00
3794;DHT22;1912;51.358;12.282;2023-08-24T06:26:31;21.30;1.00
3794;DHT22;1912;51.358;12.282;2023-08-24T06:28:57;21.30;1.00
3794;DHT22;1912;51.358;12.282;2023-08-24T06:31:23;21.40;1.00
3794;DHT22;1912;51.358;12.282;2023-08-24T06:33:49;21.60;1.00
3794;DHT22;1912;51.358;12.282;2023-08-24T06:36:15;21.90;1.00
3794;DHT22;1912;51.358;12.282;2023-08-24T06:38:40;22.10;1.00
3794;DHT22;1912;51.358;12.282;2023-08-24T06:41:06;22.20;1.00
3794;DHT22;1912;51.358;12.282;2023-08-24T06:43:37;22.40;1.00
3794;DHT22;1912;51.358;12.282;2023-08-24T06:46:05;22.70;1.00
3794;DHT22;1912;51.358;12.282;2023-08-24T06:48:35;22.90;1.00
3794;DHT22;1912;51.358;12.282;2023-08-24T06:51:01;23.10;1.00
3794;DHT22;1912;51.358;12.282;2023-08-24T06:53:26;23.40;1.00
3794;DHT22;1912;51.358;12.282;2023-08-24T06:55:56;23.70;1.00
3794;DHT22;1912;51.358;12.282;2023-08-24T06:58:22;23.80;1.00
3794;DHT22;1912;51.358;12.282;2023-08-24T07:00:48;24.00;1.00
3794;DHT22;1912;51.358;12.282;2023-08-24T07:03:16;24.30;1.00
3794;DHT22;1912;51.358;12.282;2023-08-24T07:05:43;24.50;1.00
3794;DHT22;1912;51.358;12.282;2023-08-24T07:08:09;24.40;1.00
3794;DHT22;1912;51.358;12.282;2023-08-24T07:10:35;24.60;1.00
3794;DHT22;1912;51.358;12.282;2023-08-24T07:13:01;24.80;1.00
3794;DHT22;1912;51.358;12.282;2023-08-24T07:15:27;25.00;1.00
3794;DHT22;1912;51.358;12.282;2023-08-24T07:17:53;25.30;1.00
3794;DHT22;1912;51.358;12.282;2023-08-24T07:20:18;25.30;1.00
3794;DHT22;1912;51.358;12.282;2023-08-24T07:22:45;25.10;1.00
3794;DHT22;1912;51.358;12.282;2023-08-24T07:25:10;25.10;1.00
3794;DHT22;1912;51.358;12.282;2023-08-24T07:27:37;25.30;1.00
3794;DHT22;1912;51.358;12.282;2023-08-24T07:30:03;25.50;1.00
3794;DHT22;1912;51.358;12.282;2023-08-24T07:32:31;25.70;1.00
3794;DHT22;1912;51.358;12.282;2023-08-24T07:34:57;25.70;1.00
3794;DHT22;1912;51.358;12.282;2023-08-24T07:37:28;25.90;1.00
3794;DHT22;1912;51.358;12.282;2023-08-24T07:39:53;26.00;1.00
3794;DHT22;1912;51.358;12.282;2023-08-24T07:42:20;26.10;1.00
3794;DHT22;1912;51.358;12.282;2023-08-24T07:44:47;26.40;1.00
3794;DHT22;1912;51.358;12.282;2023-08-24T07:47:13;26.40;1.00
3794;DHT22;1912;51.358;12.282;2023-08-24T07:49:39;26.20;1.00
3794;DHT22;1912;51.358;12.282;2023-08-24T07:52:12;26.50;1.00
3794;DHT22;1912;51.358;12.282;2023-08-24T07:54:38;26.60;1.00
3794;DHT22;1912;51.358;12.282;2023-08-24T07:57:07;26.90;1.00
3794;DHT22;1912;51.358;12.282;2023-08-24T07:59:33;27.20;1.00
3794;DHT22;1912;51.358;12.282;2023-08-24T08:01:59;27.40;1.00
3794;DHT22;1912;51.358;12.282;2023-08-24T08:04:24;27.40;1.00
3794;DHT22;1912;51.358;12.282;2023-08-24T08:06:50;27.70;1.00
3794;DHT22;1912;51.358;12.282;2023-08-24T08:09:16;28.30;1.00
3794;DHT22;1912;51.358;12.282;2023-08-24T08:11:42;28.50;1.00
3794;DHT22;1912;51.358;12.282;2023-08-24T08:14:09;28.70;1.00
3794;DHT22;1912;51.358;12.282;2023-08-24T08:16:35;29.00;1.00
3794;DHT22;1912;51.358;12.282;2023-08-24T08:19:01;29.20;1.00
3794;DHT22;1912;51.358;12.282;2023-08-24T08:21:27;28.90;1.00
3794;DHT22;1912;51.358;12.282;2023-08-24T08:23:53;28.30;1.00
3794;DHT22;1912;51.358;12.282;2023-08-24T08:26:19;28.50;1.00
3794;DHT22;1912;51.358;12.282;2023-08-24T08:28:44;28.80;1.00
3794;DHT22;1912;51.358;12.282;2023-08-24T08:31:10;28.80;1.00
3794;DHT22;1912;51.358;12.282;2023-08-24T08:33:36;28.40;1.00
3794;DHT22;1912;51.358;12.282;2023-08-24T08:36:01;28.40;1.00
3794;DHT22;1912;51.358;12.282;2023-08-24T08:38:28;28.60;1.00
3794;DHT22;1912;51.358;12.282;2023-08-24T08:40:56;28.40;1.00
3794;DHT22;1912;51.358;12.282;2023-08-24T08:43:22;28.40;1.00
3794;DHT22;1912;51.358;12.282;2023-08-24T08:45:51;28.40;1.00
3794;DHT22;1912;51.358;12.282;2023-08-24T08:48:18;28.40;1.00
3794;DHT22;1912;51.358;12.282;2023-08-24T08:50:48;28.70;1.00
3794;DHT22;1912;51.358;12.282;2023-08-24T08:53:15;28.10;1.00
3794;DHT22;1912;51.358;12.282;2023-08-24T08:55:41;28.10;1.00
3794;DHT22;1912;51.358;12.282;2023-08-24T08:58:07;28.20;1.00
3794;DHT22;1912;51.358;12.282;2023-08-24T09:00:33;28.50;1.00
3794;DHT22;1912;51.358;12.282;2023-08-24T09:02:59;28.50;1.00
3794;DHT22;1912;51.358;12.282;2023-08-24T09:05:26;28.50;1.00
3794;DHT22;1912;51.358;12.282;2023-08-24T09:07:53;28.50;1.00
3794;DHT22;1912;51.358;12.282;2023-08-24T09:10:20;28.50;1.00
3794;DHT22;1912;51.358;12.282;2023-08-24T09:12:46;28.00;1.00
3794;DHT22;1912;51.358;12.282;2023-08-24T09:15:12;28.00;1.00
3794;DHT22;1912;51.358;12.282;2023-08-24T09:17:42;28.20;1.00
3794;DHT22;1912;51.358;12.282;2023-08-24T09:20:09;28.10;1.00
3794;DHT22;1912;51.358;12.282;2023-08-24T09:22:36;28.00;1.00
3794;DHT22;1912;51.358;12.282;2023-08-24T09:25:03;28.10;1.00
3794;DHT22;1912;51.358;12.282;2023-08-24T09:27:31;28.10;1.00
3794;DHT22;1912;51.358;12.282;2023-08-24T09:29:57;28.20;1.00
3794;DHT22;1912;51.358;12.282;2023-08-24T09:32:24;28.30;1.00
3794;DHT22;1912;51.358;12.282;2023-08-24T09:34:50;28.40;1.00
3794;DHT22;1912;51.358;12.282;2023-08-24T09:37:16;28.60;1.00
3794;DHT22;1912;51.358;12.282;2023-08-24T09:39:44;28.60;1.00
3794;DHT22;1912;51.358;12.282;2023-08-24T09:42:10;28.70;1.00
3794;DHT22;1912;51.358;12.282;2023-08-24T09:44:36;28.50;1.00
3794;DHT22;1912;51.358;12.282;2023-08-24T09:47:01;28.50;1.00
3794;DHT22;1912;51.358;12.282;2023-08-24T09:49:28;28.60;1.00
3794;DHT22;1912;51.358;12.282;2023-08-24T09:51:57;28.60;1.00
3794;DHT22;1912;51.358;12.282;2023-08-24T09:54:27;28.60;1.00
3794;DHT22;1912;51.358;12.282;2023-08-24T09:56:55;28.60;1.00
3794;DHT22;1912;51.358;12.282;2023-08-24T09:59:23;28.40;1.00
3794;DHT22;1912;51.358;12.282;2023-08-24T10:01:53;28.30;1.00
3794;DHT22;1912;51.358;12.282;2023-08-24T10:04:25;28.50;1.00
3794;DHT22;1912;51.358;12.282;2023-08-24T10:07:06;28.40;1.00
3794;DHT22;1912;51.358;12.282;2023-08-24T10:10:02;28.80;1.00
3794;DHT22;1912;51.358;12.282;2023-08-24T10:12:32;28.80;1.00
3794;DHT22;1912;51.358;12.282;2023-08-24T10:15:04;28.80;1.00
3794;DHT22;1912;51.358;12.282;2023-08-24T10:17:32;28.80;1.00
3794;DHT22;1912;51.358;12.282;2023-08-24T10:20:02;28.70;1.00
3794;DHT22;1912;51.358;12.282;2023-08-24T10:22:31;28.70;1.00
3794;DHT22;1912;51.358;12.282;2023-08-24T10:24:59;28.80;1.00
3794;DHT22;1912;51.358;12.282;2023-08-24T10:27:27;28.90;1.00
3794;DHT22;1912;51.358;12.282;2023-08-24T10:29:53;28.70;1.00
3794;DHT22;1912;51.358;12.282;2023-08-24T10:32:23;28.60;1.00
3794;DHT22;1912;51.358;12.282;2023-08-24T10:34:49;28.30;1.00
3794;DHT22;1912;51.358;12.282;2023-08-24T10:37:16;28.10;1.00
3794;DHT22;1912;51.358;12.282;2023-08-24T10:39:46;28.20;1.00
3794;DHT22;1912;51.358;12.282;2023-08-24T10:42:14;28.20;1.00
3794;DHT22;1912;51.358;12.282;2023-08-24T10:44:43;28.40;1.00
3794;DHT22;1912;51.358;12.282;2023-08-24T10:47:15;28.40;1.00
3794;DHT22;1912;51.358;12.282;2023-08-24T10:52:25;28.20;1.00
3794;DHT22;1912;51.358;12.282;2023-08-24T10:55:03;28.20;1.00
3794;DHT22;1912;51.358;12.282;2023-08-24T10:57:38;28.20;1.00
3794;DHT22;1912;51.358;12.282;2023-08-24T11:00:12;28.10;1.00
3794;DHT22;1912;51.358;12.282;2023-08-24T11:05:23;28.10;1.00
3794;DHT22;1912;51.358;12.282;2023-08-24T11:08:00;28.00;1.00
3794;DHT22;1912;51.358;12.282;2023-08-24T11:13:18;28.10;1.00
3794;DHT22;1912;51.358;12.282;2023-08-24T11:15:49;28.10;1.00
3794;DHT22;1912;51.358;12.282;2023-08-24T11:18:24;28.20;1.00
3794;DHT22;1912;51.358;12.282;2023-08-24T11:23:28;28.40;1.00
3794;DHT22;1912;51.358;12.282;2023-08-24T11:25:55;28.40;1.00
3794;DHT22;1912;51.358;12.282;2023-08-24T11:28:27;28.40;1.00
3794;DHT22;1912;51.358;12.282;2023-08-24T11:30:54;28.50;1.00
3794;DHT22;1912;51.358;12.282;2023-08-24T11:33:32;28.50;1.00
3794;DHT22;1912;51.358;12.282;2023-08-24T11:36:00;28.40;1.00
3794;DHT22;1912;51.358;12.282;2023-08-24T11:38:40;28.50;1.00
3794;DHT22;1912;51.358;12.282;2023-08-24T11:41:16;28.70;1.00
3794;DHT22;1912;51.358;12.282;2023-08-24T11:43:43;28.60;1.00
3794;DHT22;1912;51.358;12.282;2023-08-24T11:46:10;28.60;1.00
3794;DHT22;1912;51.358;12.282;2023-08-24T11:48:37;28.60;1.00
3794;DHT22;1912;51.358;12.282;2023-08-24T11:51:08;28.70;1.00
3794;DHT22;1912;51.358;12.282;2023-08-24T11:53:40;28.80;1.00
3794;DHT22;1912;51.358;12.282;2023-08-24T11:56:11;28.80;1.00
3794;DHT22;1912;51.358;12.282;2023-08-24T11:58:41;28.90;1.00
3794;DHT22;1912;51.358;12.282;2023-08-24T12:01:09;28.90;1.00
3794;DHT22;1912;51.358;12.282;2023-08-24T12:03:36;29.10;1.00
3794;DHT22;1912;51.358;12.282;2023-08-24T12:06:12;29.20;1.00
3794;DHT22;1912;51.358;12.282;2023-08-24T12:08:45;29.20;1.00
3794;DHT22;1912;51.358;12.282;2023-08-24T12:11:19;29.50;1.00
3794;DHT22;1912;51.358;12.282;2023-08-24T12:13:49;29.60;1.00
3794;DHT22;1912;51.358;12.282;2023-08-24T12:16:16;30.50;1.00
3794;DHT22;1912;51.358;12.282;2023-08-24T12:18:47;31.40;1.00
3794;DHT22;1912;51.358;12.282;2023-08-24T12:21:14;32.10;1.00
3794;DHT22;1912;51.358;12.282;2023-08-24T12:23:40;32.60;1.00
3794;DHT22;1912;51.358;12.282;2023-08-24T12:26:06;32.90;1.00
3794;DHT22;1912;51.358;12.282;2023-08-24T12:28:33;33.40;1.00
3794;DHT22;1912;51.358;12.282;2023-08-24T12:30:59;33.40;1.00
3794;DHT22;1912;51.358;12.282;2023-08-24T12:33:30;33.70;1.00
3794;DHT22;1912;51.358;12.282;2023-08-24T12:35:57;34.00;1.00
3794;DHT22;1912;51.358;12.282;2023-08-24T12:38:25;33.90;1.00
3794;DHT22;1912;51.358;12.282;2023-08-24T12:40:52;33.60;1.00
3794;DHT22;1912;51.358;12.282;2023-08-24T12:43:18;33.50;1.00
3794;DHT22;1912;51.358;12.282;2023-08-24T12:45:44;32.70;1.00
3794;DHT22;1912;51.358;12.282;2023-08-24T12:48:10;33.60;1.00
3794;DHT22;1912;51.358;12.282;2023-08-24T12:50:37;33.80;1.00
3794;DHT22;1912;51.358;12.282;2023-08-24T12:53:04;34.00;1.00
3794;DHT22;1912;51.358;12.282;2023-08-24T12:55:32;34.10;1.00
3794;DHT22;1912;51.358;12.282;2023-08-24T12:57:59;34.50;1.00
3794;DHT22;1912;51.358;12.282;2023-08-24T13:00:25;34.70;1.00
3794;DHT22;1912;51.358;12.282;2023-08-24T13:02:52;35.10;1.00
3794;DHT22;1912;51.358;12.282;2023-08-24T13:05:18;34.60;1.00
3794;DHT22;1912;51.358;12.282;2023-08-24T13:07:44;34.60;1.00
3794;DHT22;1912;51.358;12.282;2023-08-24T13:10:10;34.70;1.00
3794;DHT22;1912;51.358;12.282;2023-08-24T13:12:37;35.20;1.00
3794;DHT22;1912;51.358;12.282;2023-08-24T13:15:02;35.10;1.00
3794;DHT22;1912;51.358;12.282;2023-08-24T13:17:32;35.30;1.00
3794;DHT22;1912;51.358;12.282;2023-08-24T13:19:58;35.30;1.00
3794;DHT22;1912;51.358;12.282;2023-08-24T13:22:23;35.80;1.00
3794;DHT22;1912;51.358;12.282;2023-08-24T13:24:49;35.60;1.00
3794;DHT22;1912;51.358;12.282;2023-08-24T13:27:15;34.80;1.00
3794;DHT22;1912;51.358;12.282;2023-08-24T13:29:42;35.00;1.00
3794;DHT22;1912;51.358;12.282;2023-08-24T13:32:08;35.10;1.00
3794;DHT22;1912;51.358;12.282;2023-08-24T13:34:33;35.30;1.00
3794;DHT22;1912;51.358;12.282;2023-08-24T13:36:59;35.00;1.00
3794;DHT22;1912;51.358;12.282;2023-08-24T13:39:26;34.50;1.00
3794;DHT22;1912;51.358;12.282;2023-08-24T13:41:57;34.80;1.00
3794;DHT22;1912;51.358;12.282;2023-08-24T13:44:26;34.30;1.00
3794;DHT22;1912;51.358;12.282;2023-08-24T13:46:52;34.70;1.00
3794;DHT22;1912;51.358;12.282;2023-08-24T13:49:18;34.40;1.00
3794;DHT22;1912;51.358;12.282;2023-08-24T13:51:44;35.10;1.00
3794;DHT22;1912;51.358;12.282;2023-08-24T13:54:14;35.20;1.00
3794;DHT22;1912;51.358;12.282;2023-08-24T13:56:45;35.20;1.00
3794;DHT22;1912;51.358;12.282;2023-08-24T13:59:14;35.10;1.00
3794;DHT22;1912;51.358;12.282;2023-08-24T14:01:41;35.40;1.00
3794;DHT22;1912;51.358;12.282;2023-08-24T14:04:07;35.20;1.00
3794;DHT22;1912;51.358;12.282;2023-08-24T14:06:34;35.50;1.00
3794;DHT22;1912;51.358;12.282;2023-08-24T14:09:04;35.40;1.00
3794;DHT22;1912;51.358;12.282;2023-08-24T14:11:29;34.80;1.00
3794;DHT22;1912;51.358;12.282;2023-08-24T14:13:56;35.00;1.00
3794;DHT22;1912;51.358;12.282;2023-08-24T14:16:23;35.30;1.00
3794;DHT22;1912;51.358;12.282;2023-08-24T14:18:48;35.60;1.00
3794;DHT22;1912;51.358;12.282;2023-08-24T14:21:15;35.60;1.00
3794;DHT22;1912;51.358;12.282;2023-08-24T14:23:41;35.80;1.00
3794;DHT22;1912;51.358;12.282;2023-08-24T14:26:07;36.20;1.00
3794;DHT22;1912;51.358;12.282;2023-08-24T14:28:54;35.80;1.00
3794;DHT22;1912;51.358;12.282;2023-08-24T14:31:22;36.00;1.00
3794;DHT22;1912;51.358;12.282;2023-08-24T14:33:49;35.80;1.00
3794;DHT22;1912;51.358;12.282;2023-08-24T14:36:16;35.90;1.00
3794;DHT22;1912;51.358;12.282;2023-08-24T14:38:42;36.10;1.00
3794;DHT22;1912;51.358;12.282;2023-08-24T14:41:12;35.70;1.00
3794;DHT22;1912;51.358;12.282;2023-08-24T14:43:38;35.70;1.00
3794;DHT22;1912;51.358;12.282;2023-08-24T14:46:05;35.60;1.00
3794;DHT22;1912;51.358;12.282;2023-08-24T14:48:31;35.80;1.00
3794;DHT22;1912;51.358;12.282;2023-08-24T14:50:57;35.70;1.00
3794;DHT22;1912;51.358;12.282;2023-08-24T14:53:24;35.60;1.00
3794;DHT22;1912;51.358;12.282;2023-08-24T14:55:50;34.80;1.00
3794;DHT22;1912;51.358;12.282;2023-08-24T14:58:17;34.90;1.00
3794;DHT22;1912;51.358;12.282;2023-08-24T15:00:43;34.90;1.00
3794;DHT22;1912;51.358;12.282;2023-08-24T15:03:12;35.30;1.00
3794;DHT22;1912;51.358;12.282;2023-08-24T15:05:46;35.20;1.00
3794;DHT22;1912;51.358;12.282;2023-08-24T15:08:20;35.40;1.00
3794;DHT22;1912;51.358;12.282;2023-08-24T15:10:48;34.70;1.00
3794;DHT22;1912;51.358;12.282;2023-08-24T15:13:14;34.90;1.00
3794;DHT22;1912;51.358;12.282;2023-08-24T15:15:40;35.10;1.00
3794;DHT22;1912;51.358;12.282;2023-08-24T15:18:06;35.20;1.00
3794;DHT22;1912;51.358;12.282;2023-08-24T15:20:32;34.90;1.00
3794;DHT22;1912;51.358;12.282;2023-08-24T15:22:59;34.80;1.00
3794;DHT22;1912;51.358;12.282;2023-08-24T15:25:25;34.50;1.00
3794;DHT22;1912;51.358;12.282;2023-08-24T15:27:51;34.30;1.00
3794;DHT22;1912;51.358;12.282;2023-08-24T15:30:17;34.00;1.00
3794;DHT22;1912;51.358;12.282;2023-08-24T15:32:42;34.10;1.00
3794;DHT22;1912;51.358;12.282;2023-08-24T15:35:08;33.80;1.00
3794;DHT22;1912;51.358;12.282;2023-08-24T15:37:34;33.50;1.00
3794;DHT22;1912;51.358;12.282;2023-08-24T15:40:00;33.50;1.00
3794;DHT22;1912;51.358;12.282;2023-08-24T15:42:26;33.50;1.00
3794;DHT22;1912;51.358;12.282;2023-08-24T15:44:52;33.40;1.00
3794;DHT22;1912;51.358;12.282;2023-08-24T15:47:18;33.50;1.00
3794;DHT22;1912;51.358;12.282;2023-08-24T15:49:44;33.70;1.00
3794;DHT22;1912;51.358;12.282;2023-08-24T15:52:10;33.70;1.00
3794;DHT22;1912;51.358;12.282;2023-08-24T15:54:35;33.10;1.00
3794;DHT22;1912;51.358;12.282;2023-08-24T15:57:01;33.20;1.00
3794;DHT22;1912;51.358;12.282;2023-08-24T15:59:27;33.30;1.00
3794;DHT22;1912;51.358;12.282;2023-08-24T16:01:52;33.60;1.00
3794;DHT22;1912;51.358;12.282;2023-08-24T16:04:18;33.60;1.00
3794;DHT22;1912;51.358;12.282;2023-08-24T16:06:44;33.60;1.00
3794;DHT22;1912;51.358;12.282;2023-08-24T16:09:10;33.40;1.00
3794;DHT22;1912;51.358;12.282;2023-08-24T16:11:36;33.50;1.00
3794;DHT22;1912;51.358;12.282;2023-08-24T16:14:02;33.60;1.00
3794;DHT22;1912;51.358;12.282;2023-08-24T16:16:29;33.60;1.00
3794;DHT22;1912;51.358;12.282;2023-08-24T16:18:56;33.50;1.00
3794;DHT22;1912;51.358;12.282;2023-08-24T16:21:22;33.60;1.00
3794;DHT22;1912;51.358;12.282;2023-08-24T16:23:49;33.60;1.00
3794;DHT22;1912;51.358;12.282;2023-08-24T16:26:16;33.40;1.00
3794;DHT22;1912;51.358;12.282;2023-08-24T16:28:42;33.40;1.00
3794;DHT22;1912;51.358;12.282;2023-08-24T16:31:07;33.40;1.00
3794;DHT22;1912;51.358;12.282;2023-08-24T16:33:33;33.20;1.00
3794;DHT22;1912;51.358;12.282;2023-08-24T16:35:59;32.90;1.00
3794;DHT22;1912;51.358;12.282;2023-08-24T16:38:25;32.80;1.00
3794;DHT22;1912;51.358;12.282;2023-08-24T16:40:51;32.80;1.00
3794;DHT22;1912;51.358;12.282;2023-08-24T16:43:16;32.70;1.00
3794;DHT22;1912;51.358;12.282;2023-08-24T16:45:42;32.50;1.00
3794;DHT22;1912;51.358;12.282;2023-08-24T16:48:08;32.30;1.00
3794;DHT22;1912;51.358;12.282;2023-08-24T16:50:34;32.30;1.00
3794;DHT22;1912;51.358;12.282;2023-08-24T16:53:00;32.20;1.00
3794;DHT22;1912;51.358;12.282;2023-08-24T16:55:26;32.10;1.00
3794;DHT22;1912;51.358;12.282;2023-08-24T16:57:51;32.00;1.00
3794;DHT22;1912;51.358;12.282;2023-08-24T17:00:17;32.00;1.00
3794;DHT22;1912;51.358;12.282;2023-08-24T17:02:43;31.90;1.00
3794;DHT22;1912;51.358;12.282;2023-08-24T17:05:09;31.70;1.00
3794;DHT22;1912;51.358;12.282;2023-08-24T17:07:39;31.30;1.00
3794;DHT22;1912;51.358;12.282;2023-08-24T17:10:06;31.20;1.00
3794;DHT22;1912;51.358;12.282;2023-08-24T17:12:33;31.00;1.00
3794;DHT22;1912;51.358;12.282;2023-08-24T17:14:58;30.80;1.00
3794;DHT22;1912;51.358;12.282;2023-08-24T17:17:24;30.90;1.00
3794;DHT22;1912;51.358;12.282;2023-08-24T17:19:50;30.80;1.00
3794;DHT22;1912;51.358;12.282;2023-08-24T17:22:17;30.70;1.00
3794;DHT22;1912;51.358;12.282;2023-08-24T17:24:43;30.50;1.00
3794;DHT22;1912;51.358;12.282;2023-08-24T17:27:09;30.40;1.00
3794;DHT22;1912;51.358;12.282;2023-08-24T17:29:34;30.30;1.00
3794;DHT22;1912;51.358;12.282;2023-08-24T17:32:00;30.30;1.00
3794;DHT22;1912;51.358;12.282;2023-08-24T17:34:26;30.20;1.00
3794;DHT22;1912;51.358;12.282;2023-08-24T17:36:52;30.00;1.00
3794;DHT22;1912;51.358;12.282;2023-08-24T17:39:17;29.70;1.00
3794;DHT22;1912;51.358;12.282;2023-08-24T17:41:44;29.50;1.00
3794;DHT22;1912;51.358;12.282;2023-08-24T17:44:11;29.30;1.00
3794;DHT22;1912;51.358;12.282;2023-08-24T17:46:37;29.20;1.00
3794;DHT22;1912;51.358;12.282;2023-08-24T17:49:03;29.20;1.00
3794;DHT22;1912;51.358;12.282;2023-08-24T17:51:30;29.30;1.00
3794;DHT22;1912;51.358;12.282;2023-08-24T17:53:55;29.30;1.00
3794;DHT22;1912;51.358;12.282;2023-08-24T17:56:22;29.30;1.00
3794;DHT22;1912;51.358;12.282;2023-08-24T17:58:48;29.30;1.00
3794;DHT22;1912;51.358;12.282;2023-08-24T18:01:13;29.20;1.00
3794;DHT22;1912;51.358;12.282;2023-08-24T18:03:39;29.00;1.00
3794;DHT22;1912;51.358;12.282;2023-08-24T18:06:05;28.90;1.00
3794;DHT22;1912;51.358;12.282;2023-08-24T18:08:30;28.90;1.00
3794;DHT22;1912;51.358;12.282;2023-08-24T18:11:03;28.90;1.00
3794;DHT22;1912;51.358;12.282;2023-08-24T18:13:30;28.80;1.00
3794;DHT22;1912;51.358;12.282;2023-08-24T18:15:56;28.60;1.00
3794;DHT22;1912;51.358;12.282;2023-08-24T18:18:22;28.50;1.00
3794;DHT22;1912;51.358;12.282;2023-08-24T18:20:47;28.30;1.00
3794;DHT22;1912;51.358;12.282;2023-08-24T18:23:13;28.30;1.00
3794;DHT22;1912;51.358;12.282;2023-08-24T18:25:39;28.20;1.00
3794;DHT22;1912;51.358;12.282;2023-08-24T18:28:06;28.10;1.00
3794;DHT22;1912;51.358;12.282;2023-08-24T18:30:32;27.90;1.00
3794;DHT22;1912;51.358;12.282;2023-08-24T18:32:58;27.60;1.00
3794;DHT22;1912;51.358;12.282;2023-08-24T18:35:24;27.40;1.00
3794;DHT22;1912;51.358;12.282;2023-08-24T18:37:51;27.60;1.00
3794;DHT22;1912;51.358;12.282;2023-08-24T18:40:17;27.60;1.00
3794;DHT22;1912;51.358;12.282;2023-08-24T18:42:42;27.50;1.00
3794;DHT22;1912;51.358;12.282;2023-08-24T18:45:09;27.40;1.00
3794;DHT22;1912;51.358;12.282;2023-08-24T18:47:35;27.40;1.00
3794;DHT22;1912;51.358;12.282;2023-08-24T18:50:01;27.30;1.00
3794;DHT22;1912;51.358;12.282;2023-08-24T18:52:27;27.20;1.00
3794;DHT22;1912;51.358;12.282;2023-08-24T18:54:53;27.20;1.00
3794;DHT22;1912;51.358;12.282;2023-08-24T18:57:19;27.10;1.00
3794;DHT22;1912;51.358;12.282;2023-08-24T18:59:45;27.00;1.00
3794;DHT22;1912;51.358;12.282;2023-08-24T19:02:11;27.00;1.00
3794;DHT22;1912;51.358;12.282;2023-08-24T19:04:40;27.00;1.00
3794;DHT22;1912;51.358;12.282;2023-08-24T19:07:06;26.90;1.00
3794;DHT22;1912;51.358;12.282;2023-08-24T19:09:31;26.80;1.00
3794;DHT22;1912;51.358;12.282;2023-08-24T19:11:57;26.70;1.00
3794;DHT22;1912;51.358;12.282;2023-08-24T19:14:23;26.70;1.00
3794;DHT22;1912;51.358;12.282;2023-08-24T19:16:48;26.60;1.00
3794;DHT22;1912;51.358;12.282;2023-08-24T19:19:14;26.60;1.00
3794;DHT22;1912;51.358;12.282;2023-08-24T20:18:04;25.80;1.00
3794;DHT22;1912;51.358;12.282;2023-08-24T20:20:30;25.70;1.00
3794;DHT22;1912;51.358;12.282;2023-08-24T20:22:56;25.70;1.00
3794;DHT22;1912;51.358;12.282;2023-08-24T20:25:21;25.80;1.00
3794;DHT22;1912;51.358;12.282;2023-08-24T20:27:48;25.80;1.00
3794;DHT22;1912;51.358;12.282;2023-08-24T20:30:14;25.80;1.00
3794;DHT22;1912;51.358;12.282;2023-08-24T20:32:40;25.80;1.00
3794;DHT22;1912;51.358;12.282;2023-08-24T20:35:06;25.80;1.00
3794;DHT22;1912;51.358;12.282;2023-08-24T20:37:32;25.80;1.00
3794;DHT22;1912;51.358;12.282;2023-08-24T20:39:58;25.70;1.00
3794;DHT22;1912;51.358;12.282;2023-08-24T20:42:24;25.70;1.00
3794;DHT22;1912;51.358;12.282;2023-08-24T20:44:52;25.70;1.00
3794;DHT22;1912;51.358;12.282;2023-08-24T20:47:19;25.70;1.00
3794;DHT22;1912;51.358;12.282;2023-08-24T20:49:46;25.70;1.00
3794;DHT22;1912;51.358;12.282;2023-08-24T20:52:19;25.70;1.00